createdAt,value
2018-12-25T00:01:45.703Z,103384.03
2018-12-25T00:04:14.312Z,103380.50
2018-12-25T00:06:42.952Z,103386.52
2018-12-25T00:09:11.494Z,103386.22
2018-12-25T00:11:40.128Z,103386.06
2018-12-25T00:14:08.717Z,103384.72
2018-12-25T00:16:37.203Z,103375.09
2018-12-25T00:19:06.174Z,103377.62
2018-12-25T00:21:35.078Z,103377.08
2018-12-25T00:24:03.700Z,103376.23
2018-12-25T00:26:32.157Z,103370.29
2018-12-25T00:29:00.778Z,103364.05
2018-12-25T00:31:29.280Z,103354.55
2018-12-25T00:33:57.942Z,103349.80
2018-12-25T00:36:26.551Z,103344.30
2018-12-25T00:38:55.151Z,103352.11
2018-12-25T00:41:23.646Z,103357.32
2018-12-25T00:43:52.301Z,103355.23
2018-12-25T00:46:20.853Z,103356.91
2018-12-25T00:48:49.510Z,103357.34
2018-12-25T00:51:18.650Z,103363.55
2018-12-25T00:53:47.109Z,103366.11
2018-12-25T00:56:15.720Z,103365.80
2018-12-25T00:58:44.310Z,103367.80
2018-12-25T01:01:13.108Z,103371.73
2018-12-25T01:03:41.566Z,103378.72
2018-12-25T01:06:10.346Z,103377.79
2018-12-25T01:08:38.869Z,103373.39
2018-12-25T01:11:07.525Z,103377.56
2018-12-25T01:13:36.062Z,103373.56
2018-12-25T01:16:04.648Z,103370.94
2018-12-25T01:18:33.195Z,103378.41
2018-12-25T01:21:01.746Z,103382.31
2018-12-25T01:23:30.191Z,103376.27
2018-12-25T01:25:58.747Z,103380.20
2018-12-25T01:28:27.363Z,103381.48
2018-12-25T01:30:56.003Z,103383.48
2018-12-25T01:33:24.494Z,103388.34
2018-12-25T01:35:53.007Z,103389.37
2018-12-25T01:38:21.482Z,103395.14
2018-12-25T01:40:50.046Z,103393.53
2018-12-25T01:43:18.566Z,103390.86
2018-12-25T01:45:47.117Z,103395.06
2018-12-25T01:48:15.726Z,103386.43
2018-12-25T01:50:44.297Z,103394.85
2018-12-25T01:53:12.926Z,103393.88
2018-12-25T01:55:41.547Z,103396.22
2018-12-25T01:58:10.090Z,103396.63
2018-12-25T02:00:38.629Z,103390.86
2018-12-25T02:03:07.073Z,103389.05
2018-12-25T02:05:35.765Z,103390.84
2018-12-25T02:08:04.356Z,103400.04
2018-12-25T02:10:32.981Z,103403.13
2018-12-25T02:13:01.522Z,103400.94
2018-12-25T02:15:30.220Z,103410.95
2018-12-25T02:17:58.746Z,103402.16
2018-12-25T02:20:27.328Z,103406.28
2018-12-25T02:22:55.875Z,103400.20
2018-12-25T02:25:24.405Z,103400.16
2018-12-25T02:27:53.756Z,103403.91
2018-12-25T02:30:22.353Z,103411.45
2018-12-25T02:32:50.930Z,103411.86
2018-12-25T02:35:19.497Z,103410.53
2018-12-25T02:37:48.176Z,103409.80
2018-12-25T02:40:16.826Z,103407.83
2018-12-25T02:42:45.274Z,103410.98
2018-12-25T02:45:13.879Z,103425.48
2018-12-25T02:47:42.425Z,103417.47
2018-12-25T02:50:10.863Z,103415.89
2018-12-25T02:52:39.608Z,103415.81
2018-12-25T02:55:08.228Z,103410.73
2018-12-25T02:57:36.797Z,103404.05
2018-12-25T03:00:07.242Z,103402.78
2018-12-25T03:02:35.787Z,103397.66
2018-12-25T03:05:04.973Z,103390.62
2018-12-25T03:07:33.545Z,103399.06
2018-12-25T03:10:02.156Z,103393.97
2018-12-25T03:12:30.789Z,103393.25
2018-12-25T03:14:59.435Z,103387.87
2018-12-25T03:17:27.998Z,103391.55
2018-12-25T03:19:59.969Z,103386.39
2018-12-25T03:22:26.803Z,103380.48
2018-12-25T03:24:55.314Z,103388.63
2018-12-25T03:27:23.873Z,103384.66
2018-12-25T03:29:52.384Z,103379.97
2018-12-25T03:32:20.928Z,103376.42
2018-12-25T03:34:49.492Z,103375.47
2018-12-25T03:37:18.069Z,103378.27
2018-12-25T03:39:46.656Z,103375.20
2018-12-25T03:42:15.204Z,103376.14
2018-12-25T03:44:43.654Z,103372.38
2018-12-25T03:47:12.126Z,103364.48
2018-12-25T03:49:40.661Z,103367.30
2018-12-25T03:52:09.209Z,103366.59
2018-12-25T03:54:37.751Z,103369.36
2018-12-25T03:57:06.332Z,103362.29
2018-12-25T03:59:34.913Z,103356.84
2018-12-25T04:02:03.388Z,103355.01
2018-12-25T04:04:32.005Z,103354.97
2018-12-25T04:07:00.586Z,103349.73
2018-12-25T04:09:29.165Z,103349.69
2018-12-25T04:11:57.741Z,103354.88
2018-12-25T04:14:26.319Z,103357.05
2018-12-25T04:16:54.908Z,103358.92
2018-12-25T04:19:23.439Z,103356.70
2018-12-25T04:21:51.970Z,103356.05
2018-12-25T04:24:20.557Z,103353.14
2018-12-25T04:26:49.099Z,103348.80
2018-12-25T04:29:17.565Z,103349.58
2018-12-25T04:31:46.076Z,103346.81
2018-12-25T04:34:14.763Z,103352.80
2018-12-25T04:36:43.318Z,103364.30
2018-12-25T04:39:11.776Z,103363.42
2018-12-25T04:41:40.425Z,103360.07
2018-12-25T04:44:08.877Z,103359.13
2018-12-25T04:46:37.525Z,103362.63
2018-12-25T04:49:05.973Z,103365.80
2018-12-25T04:51:35.316Z,103361.81
2018-12-25T04:54:03.918Z,103366.86
2018-12-25T04:56:32.426Z,103365.95
2018-12-25T04:59:00.965Z,103368.07
2018-12-25T05:01:29.496Z,103378.53
2018-12-25T05:03:58.041Z,103369.97
2018-12-25T05:06:26.545Z,103371.12
2018-12-25T05:08:54.995Z,103367.55
2018-12-25T05:11:23.565Z,103361.78
2018-12-25T05:13:52.122Z,103365.44
2018-12-25T05:16:21.072Z,103353.16
2018-12-25T05:18:49.689Z,103346.08
2018-12-25T05:21:18.270Z,103348.56
2018-12-25T05:23:46.815Z,103346.62
2018-12-25T05:26:15.330Z,103349.73
2018-12-25T05:28:43.770Z,103354.45
2018-12-25T05:31:12.408Z,103357.05
2018-12-25T05:33:40.886Z,103354.12
2018-12-25T05:36:09.463Z,103353.00
2018-12-25T05:38:38.022Z,103357.45
2018-12-25T05:41:06.467Z,103357.84
2018-12-25T05:43:35.023Z,103354.14
2018-12-25T05:46:03.606Z,103369.59
2018-12-25T05:48:32.115Z,103358.04
2018-12-25T05:51:00.615Z,103358.40
2018-12-25T05:53:29.248Z,103366.00
2018-12-25T05:55:57.761Z,103367.27
2018-12-25T05:58:26.337Z,103362.63
2018-12-25T06:00:54.861Z,103358.19
2018-12-25T06:03:23.385Z,103361.25
2018-12-25T06:05:51.943Z,103361.55
2018-12-25T06:08:20.466Z,103361.55
2018-12-25T06:10:49.130Z,103369.22
2018-12-25T06:13:17.837Z,103368.91
2018-12-25T06:15:46.341Z,103366.99
2018-12-25T06:18:14.934Z,103361.77
2018-12-25T06:20:43.421Z,103357.57
2018-12-25T06:23:12.021Z,103357.57
2018-12-25T06:25:40.635Z,103356.48
2018-12-25T06:28:09.173Z,103362.84
2018-12-25T06:30:37.639Z,103365.23
2018-12-25T06:33:06.138Z,103365.23
2018-12-25T06:35:34.673Z,103355.73
2018-12-25T06:38:03.272Z,103348.23
2018-12-25T06:40:31.745Z,103364.88
2018-12-25T06:43:00.231Z,103362.69
2018-12-25T06:45:28.679Z,103362.86
2018-12-25T06:47:57.227Z,103362.09
2018-12-25T06:50:26.811Z,103362.01
2018-12-25T06:52:55.462Z,103359.27
2018-12-25T06:55:23.951Z,103361.48
2018-12-25T06:57:52.430Z,103365.05
2018-12-25T07:00:21.098Z,103369.69
2018-12-25T07:02:49.653Z,103373.56
2018-12-25T07:05:18.266Z,103370.20
2018-12-25T07:07:46.987Z,103369.10
2018-12-25T07:10:15.515Z,103371.58
2018-12-25T07:12:44.159Z,103371.85
2018-12-25T07:15:12.751Z,103370.50
2018-12-25T07:17:41.271Z,103368.53
2018-12-25T07:20:09.881Z,103364.48
2018-12-25T07:22:38.514Z,103361.02
2018-12-25T07:25:07.117Z,103358.74
2018-12-25T07:27:35.728Z,103359.61
2018-12-25T07:30:05.056Z,103361.05
2018-12-25T07:32:33.577Z,103360.30
2018-12-25T07:35:02.090Z,103355.20
2018-12-25T07:37:31.330Z,103362.83
2018-12-25T07:39:59.831Z,103363.03
2018-12-25T07:42:28.451Z,103372.02
2018-12-25T07:44:57.036Z,103367.05
2018-12-25T07:47:25.604Z,103377.20
2018-12-25T07:49:54.168Z,103377.08
2018-12-25T07:52:22.724Z,103370.62
2018-12-25T07:54:51.393Z,103373.16
2018-12-25T07:57:19.974Z,103370.24
2018-12-25T07:59:48.544Z,103372.80
2018-12-25T08:02:17.968Z,103370.70
2018-12-25T08:04:46.466Z,103370.47
2018-12-25T08:07:15.074Z,103368.07
2018-12-25T08:09:43.695Z,103370.05
2018-12-25T08:12:12.250Z,103374.41
2018-12-25T08:14:40.790Z,103371.12
2018-12-25T08:17:09.469Z,103374.69
2018-12-25T08:19:38.092Z,103374.98
2018-12-25T08:22:06.660Z,103380.28
2018-12-25T08:24:35.309Z,103394.25
2018-12-25T08:27:04.055Z,103392.20
2018-12-25T08:29:32.797Z,103385.02
2018-12-25T08:32:01.505Z,103389.27
2018-12-25T08:34:30.103Z,103389.05
2018-12-25T08:36:58.728Z,103384.56
2018-12-25T08:39:27.230Z,103386.54
2018-12-25T08:41:55.742Z,103387.51
2018-12-25T08:44:24.370Z,103385.59
2018-12-25T08:46:53.004Z,103383.63
2018-12-25T08:49:21.736Z,103383.16
2018-12-25T08:51:50.359Z,103379.25
2018-12-25T08:54:18.870Z,103378.67
2018-12-25T08:56:47.450Z,103380.20
2018-12-25T08:59:16.041Z,103385.17
2018-12-25T09:01:44.685Z,103377.09
2018-12-25T09:04:13.208Z,103379.48
2018-12-25T09:06:41.853Z,103374.05
2018-12-25T09:09:10.387Z,103382.70
2018-12-25T09:11:38.973Z,103380.53
2018-12-25T09:14:08.100Z,103375.97
2018-12-25T09:16:36.611Z,103379.63
2018-12-25T09:19:05.336Z,103387.80
2018-12-25T09:21:33.940Z,103388.75
2018-12-25T09:24:02.569Z,103389.22
2018-12-25T09:26:31.223Z,103389.52
2018-12-25T09:28:59.694Z,103387.22
2018-12-25T09:31:28.319Z,103393.67
2018-12-25T09:33:56.887Z,103390.28
2018-12-25T09:36:25.389Z,103376.67
2018-12-25T09:38:53.885Z,103381.23
2018-12-25T09:41:22.477Z,103383.93
2018-12-25T09:43:51.099Z,103382.18
2018-12-25T09:46:19.656Z,103384.48
2018-12-25T09:48:48.243Z,103384.17
2018-12-25T09:51:16.974Z,103390.33
2018-12-25T09:53:45.489Z,103383.64
2018-12-25T09:56:14.097Z,103379.77
2018-12-25T09:58:42.706Z,103379.78
2018-12-25T10:01:11.231Z,103384.29
2018-12-25T10:03:40.628Z,103375.47
2018-12-25T10:06:09.172Z,103366.47
2018-12-25T10:08:37.706Z,103364.45
2018-12-25T10:11:06.323Z,103355.86
2018-12-25T10:13:34.881Z,103361.94
2018-12-25T10:16:03.332Z,103357.76
2018-12-25T10:18:31.885Z,103346.88
2018-12-25T10:21:00.430Z,103348.02
2018-12-25T10:23:29.032Z,103348.03
2018-12-25T10:25:57.724Z,103359.25
2018-12-25T10:28:27.321Z,103356.13
2018-12-25T10:30:55.943Z,103363.30
2018-12-25T10:33:24.582Z,103361.22
2018-12-25T10:35:53.213Z,103365.41
2018-12-25T10:38:21.668Z,103352.98
2018-12-25T10:40:50.134Z,103358.73
2018-12-25T10:43:18.703Z,103351.61
2018-12-25T10:45:47.210Z,103346.03
2018-12-25T10:48:15.814Z,103342.45
2018-12-25T10:50:44.355Z,103347.06
2018-12-25T10:53:12.963Z,103344.69
2018-12-25T10:55:41.677Z,103342.63
2018-12-25T10:58:10.351Z,103344.41
2018-12-25T11:00:41.778Z,103344.70
2018-12-25T11:03:13.072Z,103335.35
2018-12-25T11:05:40.544Z,103336.90
2018-12-25T11:08:09.085Z,103335.45
2018-12-25T11:10:37.645Z,103338.45
2018-12-25T11:13:06.094Z,103343.62
2018-12-25T11:15:34.745Z,103344.03
2018-12-25T11:18:03.363Z,103344.77
2018-12-25T11:20:31.980Z,103341.30
2018-12-25T11:23:00.544Z,103346.41
2018-12-25T11:25:29.095Z,103344.87
2018-12-25T11:27:57.691Z,103348.67
2018-12-25T11:30:26.324Z,103346.01
2018-12-25T11:32:55.006Z,103352.76
2018-12-25T11:35:23.692Z,103355.02
2018-12-25T11:37:52.268Z,103347.36
2018-12-25T11:40:20.874Z,103348.91
2018-12-25T11:42:49.388Z,103349.73
2018-12-25T11:45:18.449Z,103345.55
2018-12-25T11:47:47.173Z,103345.45
2018-12-25T11:50:15.676Z,103342.80
2018-12-25T11:52:44.405Z,103349.22
2018-12-25T11:55:12.843Z,103343.28
2018-12-25T11:57:41.360Z,103337.64
2018-12-25T12:00:10.149Z,103337.25
2018-12-25T12:02:38.760Z,103333.05
2018-12-25T12:05:07.342Z,103345.59
2018-12-25T12:07:36.051Z,103343.88
2018-12-25T12:10:07.444Z,103344.41
2018-12-25T12:12:36.014Z,103346.16
2018-12-25T12:15:05.117Z,103342.02
2018-12-25T12:17:33.664Z,103343.20
2018-12-25T12:20:02.273Z,103332.59
2018-12-25T12:22:36.979Z,103329.56
2018-12-25T12:25:01.214Z,103328.92
2018-12-25T12:27:30.788Z,103330.02
2018-12-25T12:29:59.373Z,103329.33
2018-12-25T12:32:27.933Z,103328.89
2018-12-25T12:34:56.486Z,103320.94
2018-12-25T12:37:24.947Z,103320.20
2018-12-25T12:39:53.431Z,103317.29
2018-12-25T12:42:21.971Z,103309.69
2018-12-25T12:44:50.587Z,103312.25
2018-12-25T12:47:19.165Z,103314.52
2018-12-25T12:49:47.647Z,103313.02
2018-12-25T12:52:16.173Z,103309.41
2018-12-25T12:54:44.812Z,103308.78
2018-12-25T12:57:13.401Z,103302.64
2018-12-25T12:59:41.956Z,103294.34
2018-12-25T13:02:10.569Z,103294.20
2018-12-25T13:04:39.113Z,103302.92
2018-12-25T13:07:07.633Z,103298.31
2018-12-25T13:09:36.339Z,103304.65
2018-12-25T13:12:04.967Z,103309.63
2018-12-25T13:14:33.599Z,103313.47
2018-12-25T13:17:02.108Z,103308.30
2018-12-25T13:19:30.838Z,103317.59
2018-12-25T13:21:59.444Z,103310.13
2018-12-25T13:24:28.152Z,103317.67
2018-12-25T13:26:56.752Z,103324.19
2018-12-25T13:29:25.358Z,103325.31
2018-12-25T13:31:53.888Z,103319.14
2018-12-25T13:34:22.529Z,103326.20
2018-12-25T13:36:50.994Z,103324.41
2018-12-25T13:39:19.546Z,103326.48
2018-12-25T13:41:48.102Z,103325.70
2018-12-25T13:44:16.721Z,103325.70
2018-12-25T13:46:51.526Z,103326.22
2018-12-25T13:49:15.660Z,103326.86
2018-12-25T13:51:44.180Z,103323.55
2018-12-25T13:54:12.768Z,103325.80
2018-12-25T13:56:41.383Z,103336.94
2018-12-25T13:59:09.963Z,103336.91
2018-12-25T14:01:38.506Z,103339.25
2018-12-25T14:04:07.188Z,103335.95
2018-12-25T14:06:35.706Z,103337.01
2018-12-25T14:09:06.043Z,103340.89
2018-12-25T14:11:34.613Z,103335.42
2018-12-25T14:14:03.193Z,103336.39
2018-12-25T14:16:32.625Z,103328.33
2018-12-25T14:19:01.127Z,103328.33
2018-12-25T14:21:29.704Z,103330.27
2018-12-25T14:23:58.239Z,103337.65
2018-12-25T14:26:26.843Z,103335.73
2018-12-25T14:28:56.588Z,103331.97
2018-12-25T14:31:25.282Z,103332.11
2018-12-25T14:33:53.902Z,103332.27
2018-12-25T14:36:22.408Z,103334.38
2018-12-25T14:38:51.081Z,103333.47
2018-12-25T14:41:19.688Z,103332.56
2018-12-25T14:43:48.302Z,103338.42
2018-12-25T14:46:16.829Z,103329.43
2018-12-25T14:48:45.381Z,103331.81
2018-12-25T14:51:14.052Z,103326.80
2018-12-25T14:53:42.731Z,103330.34
2018-12-25T14:56:11.251Z,103323.62
2018-12-25T14:58:39.823Z,103334.03
2018-12-25T15:01:08.472Z,103329.16
2018-12-25T15:03:36.987Z,103332.33
2018-12-25T15:06:05.542Z,103328.23
2018-12-25T15:08:34.225Z,103328.91
2018-12-25T15:11:02.752Z,103336.16
2018-12-25T15:13:31.361Z,103335.52
2018-12-25T15:15:59.990Z,103332.41
2018-12-25T15:18:28.510Z,103332.66
2018-12-25T15:20:57.101Z,103320.22
2018-12-25T15:23:28.304Z,103328.69
2018-12-25T15:25:55.983Z,103333.30
2018-12-25T15:28:24.532Z,103330.59
2018-12-25T15:30:53.540Z,103334.34
2018-12-25T15:33:22.182Z,103337.38
2018-12-25T15:35:50.778Z,103337.80
2018-12-25T15:38:19.433Z,103331.42
2018-12-25T15:40:48.170Z,103345.66
2018-12-25T15:43:16.772Z,103342.81
2018-12-25T15:45:45.397Z,103347.21
2018-12-25T15:48:13.848Z,103346.16
2018-12-25T15:50:42.413Z,103337.91
2018-12-25T15:53:11.023Z,103344.66
2018-12-25T15:55:39.627Z,103344.12
2018-12-25T15:58:08.404Z,103337.46
2018-12-25T16:00:36.968Z,103342.16
2018-12-25T16:03:05.515Z,103343.34
2018-12-25T16:05:34.037Z,103341.48
2018-12-25T16:08:02.667Z,103341.48
2018-12-25T16:10:31.251Z,103334.44
2018-12-25T16:12:59.808Z,103336.62
2018-12-25T16:15:28.326Z,103340.78
2018-12-25T16:17:56.812Z,103340.89
2018-12-25T16:20:25.445Z,103346.35
2018-12-25T16:22:53.861Z,103342.72
2018-12-25T16:25:22.429Z,103340.33
2018-12-25T16:27:51.059Z,103338.09
2018-12-25T16:30:19.686Z,103339.14
2018-12-25T16:32:48.227Z,103332.53
2018-12-25T16:35:16.779Z,103338.78
2018-12-25T16:37:45.485Z,103341.05
2018-12-25T16:40:14.113Z,103341.48
2018-12-25T16:42:42.664Z,103337.23
2018-12-25T16:45:11.278Z,103343.49
2018-12-25T16:47:39.922Z,103338.97
2018-12-25T16:50:08.503Z,103345.83
2018-12-25T16:52:37.148Z,103351.20
2018-12-25T16:55:05.827Z,103355.57
2018-12-25T16:57:34.424Z,103356.00
2018-12-25T17:00:03.343Z,103358.31
2018-12-25T17:02:31.875Z,103350.66
2018-12-25T17:05:00.451Z,103349.05
2018-12-25T17:07:29.566Z,103350.23
2018-12-25T17:09:58.182Z,103348.45
2018-12-25T17:12:26.795Z,103343.16
2018-12-25T17:14:55.411Z,103345.48
2018-12-25T17:17:23.884Z,103350.12
2018-12-25T17:19:52.429Z,103357.24
2018-12-25T17:22:21.013Z,103354.64
2018-12-25T17:24:49.495Z,103352.25
2018-12-25T17:27:18.059Z,103355.13
2018-12-25T17:29:46.652Z,103356.81
2018-12-25T17:32:15.293Z,103358.36
2018-12-25T17:34:43.824Z,103350.33
2018-12-25T17:37:12.517Z,103359.71
2018-12-25T17:39:41.006Z,103355.14
2018-12-25T17:42:09.599Z,103352.05
2018-12-25T17:44:38.248Z,103352.73
2018-12-25T17:47:06.878Z,103358.14
2018-12-25T17:49:35.348Z,103354.28
2018-12-25T17:52:03.878Z,103354.31
2018-12-25T17:54:32.447Z,103356.84
2018-12-25T17:57:01.046Z,103363.23
2018-12-25T17:59:29.698Z,103366.63
2018-12-25T18:01:58.341Z,103370.65
2018-12-25T18:04:26.854Z,103366.66
2018-12-25T18:06:55.485Z,103373.20
2018-12-25T18:09:24.098Z,103374.27
2018-12-25T18:11:52.667Z,103371.17
2018-12-25T18:14:21.355Z,103374.71
2018-12-25T18:16:49.972Z,103369.29
2018-12-25T18:19:19.302Z,103369.27
2018-12-25T18:21:47.933Z,103368.65
2018-12-25T18:24:19.488Z,103365.59
2018-12-25T18:26:46.801Z,103370.80
2018-12-25T18:29:15.334Z,103373.16
2018-12-25T18:31:43.968Z,103372.19
2018-12-25T18:34:12.501Z,103369.47
2018-12-25T18:36:41.043Z,103372.52
2018-12-25T18:39:09.652Z,103366.87
2018-12-25T18:41:38.247Z,103370.87
2018-12-25T18:44:07.425Z,103367.68
2018-12-25T18:46:36.065Z,103367.68
2018-12-25T18:49:04.653Z,103364.94
2018-12-25T18:51:33.207Z,103363.43
2018-12-25T18:54:01.798Z,103365.73
2018-12-25T18:56:30.420Z,103367.97
2018-12-25T18:58:59.078Z,103363.51
2018-12-25T19:01:27.657Z,103357.55
2018-12-25T19:03:56.247Z,103351.41
2018-12-25T19:06:24.810Z,103349.64
2018-12-25T19:08:53.436Z,103351.84
2018-12-25T19:11:22.081Z,103347.67
2018-12-25T19:13:50.577Z,103339.67
2018-12-25T19:16:19.208Z,103333.12
2018-12-25T19:18:47.926Z,103338.02
2018-12-25T19:21:16.527Z,103340.45
2018-12-25T19:23:48.042Z,103340.38
2018-12-25T19:26:17.128Z,103342.53
2018-12-25T19:28:45.747Z,103337.75
2018-12-25T19:31:14.369Z,103341.06
2018-12-25T19:33:43.068Z,103337.22
2018-12-25T19:36:11.977Z,103340.41
2018-12-25T19:38:40.562Z,103339.23
2018-12-25T19:41:09.128Z,103339.70
2018-12-25T19:43:37.698Z,103329.97
2018-12-25T19:46:06.248Z,103331.78
2018-12-25T19:48:34.861Z,103336.94
2018-12-25T19:51:03.483Z,103334.25
2018-12-25T19:53:32.298Z,103334.83
2018-12-25T19:56:00.940Z,103334.47
2018-12-25T19:58:29.598Z,103338.67
2018-12-25T20:00:58.203Z,103337.68
2018-12-25T20:03:26.822Z,103332.06
2018-12-25T20:06:04.415Z,103331.92
2018-12-25T20:08:45.335Z,103336.80
2018-12-25T20:11:33.150Z,103340.84
2018-12-25T20:14:25.351Z,103341.53
2018-12-25T20:17:05.480Z,103341.17
2018-12-25T20:19:51.787Z,103347.27
2018-12-25T20:22:34.933Z,103348.03
2018-12-25T20:25:33.664Z,103352.61
2018-12-25T20:28:07.827Z,103352.98
2018-12-25T20:31:04.481Z,103355.59
2018-12-25T20:33:41.899Z,103350.72
2018-12-25T20:36:40.932Z,103354.82
2018-12-25T20:39:28.945Z,103348.58
2018-12-25T20:42:09.421Z,103346.41
2018-12-25T20:45:16.464Z,103349.11
2018-12-25T20:48:21.073Z,103343.58
2018-12-25T20:51:01.157Z,103339.95
2018-12-25T20:53:47.966Z,103337.48
2018-12-25T20:56:43.323Z,103337.08
2018-12-25T20:59:23.845Z,103342.05
2018-12-25T21:02:07.672Z,103346.47
2018-12-25T21:04:55.957Z,103339.00
2018-12-25T21:07:30.217Z,103343.37
2018-12-25T21:10:35.396Z,103334.20
2018-12-25T21:13:24.902Z,103333.38
2018-12-25T21:16:08.249Z,103336.88
2018-12-25T21:18:56.095Z,103333.66
2018-12-25T21:21:39.478Z,103336.96
2018-12-25T21:24:33.419Z,103335.02
2018-12-25T21:27:32.375Z,103326.75
2018-12-25T21:30:02.240Z,103323.96
2018-12-25T21:32:32.567Z,103322.56
2018-12-25T21:35:16.105Z,103319.92
2018-12-25T21:37:45.662Z,103317.52
2018-12-25T21:40:14.314Z,103309.62
2018-12-25T21:42:43.014Z,103312.75
2018-12-25T21:45:12.500Z,103319.09
2018-12-25T21:47:42.295Z,103316.73
2018-12-25T21:50:11.397Z,103316.83
2018-12-25T21:52:40.248Z,103318.16
2018-12-25T21:55:18.300Z,103313.00
2018-12-25T21:57:40.309Z,103310.75
2018-12-25T22:00:11.469Z,103306.59
2018-12-25T22:02:40.750Z,103295.67
2018-12-25T22:05:09.387Z,103290.68
2018-12-25T22:07:38.033Z,103287.42
2018-12-25T22:10:07.437Z,103289.88
2018-12-25T22:12:36.064Z,103288.57
2018-12-25T22:15:06.184Z,103295.03
2018-12-25T22:17:34.821Z,103294.83
2018-12-25T22:20:11.539Z,103291.17
2018-12-25T22:22:40.233Z,103284.66
2018-12-25T22:25:08.790Z,103277.06
2018-12-25T22:27:37.382Z,103279.74
2018-12-25T22:30:06.414Z,103283.34
2018-12-25T22:32:34.906Z,103275.42
2018-12-25T22:35:03.495Z,103278.79
2018-12-25T22:37:32.347Z,103284.28
2018-12-25T22:40:00.857Z,103278.59
2018-12-25T22:42:29.425Z,103276.31
2018-12-25T22:44:58.027Z,103276.75
2018-12-25T22:47:26.545Z,103275.13
2018-12-25T22:49:55.308Z,103271.49
2018-12-25T22:52:23.922Z,103273.55
2018-12-25T22:54:52.509Z,103272.41
2018-12-25T22:57:21.047Z,103275.77
2018-12-25T22:59:49.616Z,103281.97
2018-12-25T23:02:18.314Z,103277.95
2018-12-25T23:04:46.954Z,103279.74
2018-12-25T23:07:15.430Z,103276.42
2018-12-25T23:09:44.061Z,103283.35
2018-12-25T23:12:12.652Z,103278.08
2018-12-25T23:14:41.259Z,103278.50
2018-12-25T23:17:09.818Z,103271.06
2018-12-25T23:19:38.403Z,103270.28
2018-12-25T23:22:06.970Z,103275.55
2018-12-25T23:24:35.421Z,103278.05
2018-12-25T23:27:03.954Z,103279.35
2018-12-25T23:29:32.514Z,103279.95
2018-12-25T23:32:01.032Z,103284.83
2018-12-25T23:34:29.503Z,103280.14
2018-12-25T23:36:57.944Z,103268.05
2018-12-25T23:39:26.499Z,103277.63
2018-12-25T23:41:55.242Z,103275.66
2018-12-25T23:44:23.760Z,103281.53
2018-12-25T23:46:52.359Z,103291.95
2018-12-25T23:49:21.030Z,103292.80
2018-12-25T23:51:49.667Z,103272.88
2018-12-25T23:54:18.779Z,103285.20
2018-12-25T23:56:47.402Z,103288.22
2018-12-25T23:59:16.069Z,103279.08
